Time;durP1;ratioP1;P1;durP2;ratioP2;P2;SDS_P1;SDS_P2;PMS_P1;PMS_P2;Temp;Humidity;BMP_temperature;BMP_pressure;BME280_temperature;BME280_humidity;BME280_pressure;Samples;Min_cycle;Max_cycle;Signal;HPM_P1;HPM_P2
2022/01/09 00:00:38;;;;;;;;;3.00;2.00;;;;;;;;5051591;28;47881;-71
2022/01/09 00:03:03;;;;;;;;;3.50;2.50;;;;;;;;5073963;28;45298;-70
2022/01/09 00:05:29;;;;;;;;;2.00;1.00;;;;;;;;5060357;28;45455;-71
2022/01/09 00:07:55;;;;;;;;;1.00;1.00;;;;;;;;5072662;28;45500;-71
2022/01/09 00:10:20;;;;;;;;;1.50;1.00;;;;;;;;5051971;28;47732;-72
2022/01/09 00:12:46;;;;;;;;;2.50;1.00;;;;;;;;5065167;27;45455;-69
2022/01/09 00:15:11;;;;;;;;;2.25;0.00;;;;;;;;5064385;28;50368;-70
2022/01/09 00:17:37;;;;;;;;;2.25;1.75;;;;;;;;5049719;28;45417;-71
2022/01/09 00:20:03;;;;;;;;;7.00;2.00;;;;;;;;5073168;28;45652;-71
2022/01/09 00:22:38;;;;;;;;;2.00;2.00;;;;;;;;5073257;28;45375;-72
2022/01/09 00:25:04;;;;;;;;;2.50;1.00;;;;;;;;5091060;27;45202;-69
2022/01/09 00:27:29;;;;;;;;;5.00;1.75;;;;;;;;5057964;28;45464;-72
2022/01/09 00:29:54;;;;;;;;;1.75;1.00;;;;;;;;5068953;28;45852;-72
2022/01/09 00:32:20;;;;;;;;;1.75;1.00;;;;;;;;5069764;28;45414;-71
2022/01/09 00:34:45;;;;;;;;;3.75;1.00;;;;;;;;5042261;28;45416;-71
2022/01/09 00:37:10;;;;;;;;;1.50;1.50;;;;;;;;5075479;27;45444;-71
2022/01/09 00:39:35;;;;;;;;;4.75;1.75;;;;;;;;5046252;28;48400;-70
2022/01/09 00:42:00;;;;;;;;;1.00;1.00;;;;;;;;5066346;28;45440;-71
2022/01/09 00:44:26;;;;;;;;;5.25;2.00;;;;;;;;5075226;28;45447;-72
2022/01/09 00:46:51;;;;;;;;;4.75;2.75;;;;;;;;5077081;28;45400;-71
2022/01/09 00:49:16;;;;;;;;;3.25;2.25;;;;;;;;5071853;28;45937;-71
2022/01/09 00:51:41;;;;;;;;;2.25;1.25;;;;;;;;5077630;28;45415;-70
2022/01/09 00:54:07;;;;;;;;;1.75;1.75;;;;;;;;5074466;28;45475;-68
2022/01/09 00:56:32;;;;;;;;;4.25;1.50;;;;;;;;5052983;28;45566;-71
2022/01/09 00:58:57;;;;;;;;;2.50;2.00;;;;;;;;5073152;28;45598;-73
2022/01/09 01:01:22;;;;;;;;;8.50;2.25;;;;;;;;5054805;28;45610;-71
2022/01/09 01:03:48;;;;;;;;;2.00;1.00;;;;;;;;5058393;28;45468;-70
2022/01/09 01:06:13;;;;;;;;;2.25;1.25;;;;;;;;5071642;28;45517;-71
2022/01/09 01:08:38;;;;;;;;;5.75;2.75;;;;;;;;5054275;28;48402;-69
2022/01/09 01:11:03;;;;;;;;;2.00;2.00;;;;;;;;5057762;28;45454;-72
2022/01/09 01:13:29;;;;;;;;;1.00;1.00;;;;;;;;5057904;28;45500;-72
2022/01/09 01:15:54;;;;;;;;;2.00;1.00;;;;;;;;5054854;28;45655;-69
2022/01/09 01:18:20;;;;;;;;;0.75;0.25;;;;;;;;5069172;28;46504;-71
2022/01/09 01:20:45;;;;;;;;;0.00;0.00;;;;;;;;5070695;28;45499;-70
2022/01/09 01:23:10;;;;;;;;;2.75;2.00;;;;;;;;5057412;28;45398;-69
2022/01/09 01:25:36;;;;;;;;;2.25;1.00;;;;;;;;5070046;28;45400;-71
2022/01/09 01:28:01;;;;;;;;;2.25;0.25;;;;;;;;5069618;28;45547;-70
2022/01/09 01:30:26;;;;;;;;;3.75;1.00;;;;;;;;5076552;28;45377;-70
2022/01/09 01:32:52;;;;;;;;;1.00;1.00;;;;;;;;5073030;28;45460;-69
2022/01/09 01:35:17;;;;;;;;;3.00;2.00;;;;;;;;5068698;27;45528;-70
2022/01/09 01:37:42;;;;;;;;;1.00;1.00;;;;;;;;5072182;27;45673;-70
2022/01/09 01:40:09;;;;;;;;;0.00;0.00;;;;;;;;5069017;28;45327;-71
2022/01/09 01:42:34;;;;;;;;;0.00;0.00;;;;;;;;5054949;28;45354;-75
2022/01/09 01:44:59;;;;;;;;;3.00;2.50;;;;;;;;5057125;28;45415;-75
2022/01/09 01:47:24;;;;;;;;;4.50;0.50;;;;;;;;5056962;28;47511;-75
2022/01/09 01:49:50;;;;;;;;;3.25;2.00;;;;;;;;5050879;28;46212;-74
2022/01/09 01:52:16;;;;;;;;;1.25;1.25;;;;;;;;5071632;28;45160;-75
2022/01/09 01:54:43;;;;;;;;;4.50;2.00;;;;;;;;5057551;28;45279;-73
2022/01/09 01:57:08;;;;;;;;;4.00;1.50;;;;;;;;5057413;28;48717;-73
2022/01/09 01:59:34;;;;;;;;;0.50;0.50;;;;;;;;5074057;28;45945;-72
2022/01/09 02:01:59;;;;;;;;;1.00;1.00;;;;;;;;5055783;28;45524;-72
2022/01/09 02:04:24;;;;;;;;;0.50;0.50;;;;;;;;5057052;28;45583;-72
2022/01/09 02:06:50;;;;;;;;;1.00;1.00;;;;;;;;5074373;28;45441;-72
2022/01/09 02:09:16;;;;;;;;;0.00;0.00;;;;;;;;5059338;28;45697;-73
2022/01/09 02:11:41;;;;;;;;;0.00;0.00;;;;;;;;5073218;28;45464;-75
2022/01/09 02:14:06;;;;;;;;;2.50;1.00;;;;;;;;5057080;28;45559;-75
2022/01/09 02:16:32;;;;;;;;;1.75;1.75;;;;;;;;5056772;28;47363;-73
2022/01/09 02:19:03;;;;;;;;;1.00;1.00;;;;;;;;5081263;28;45225;-72
2022/01/09 02:21:28;;;;;;;;;4.25;1.00;;;;;;;;5075657;28;45434;-74
2022/01/09 02:23:53;;;;;;;;;1.50;0.50;;;;;;;;5074750;28;45844;-72
2022/01/09 02:26:20;;;;;;;;;1.00;0.00;;;;;;;;5074173;28;46341;-71
2022/01/09 02:28:46;;;;;;;;;0.00;0.00;;;;;;;;5069283;28;45401;-72
2022/01/09 02:31:11;;;;;;;;;2.00;0.50;;;;;;;;5068035;28;45412;-71
2022/01/09 02:33:37;;;;;;;;;0.50;0.50;;;;;;;;5073431;28;45513;-74
2022/01/09 02:36:02;;;;;;;;;0.00;0.00;;;;;;;;5071579;28;45431;-73
2022/01/09 02:38:27;;;;;;;;;1.50;0.00;;;;;;;;5068210;28;45495;-73
2022/01/09 02:40:53;;;;;;;;;0.00;0.00;;;;;;;;5068844;28;45372;-75
2022/01/09 02:43:19;;;;;;;;;0.00;0.00;;;;;;;;5056913;28;45248;-76
2022/01/09 02:45:47;;;;;;;;;0.00;0.00;;;;;;;;5076526;28;45557;-77
2022/01/09 02:48:13;;;;;;;;;0.00;0.00;;;;;;;;5057319;28;46171;-76
2022/01/09 02:50:43;;;;;;;;;1.00;0.00;;;;;;;;5055983;28;45569;-77
2022/01/09 02:53:20;;;;;;;;;0.75;0.00;;;;;;;;5068010;28;45511;-76
2022/01/09 02:55:46;;;;;;;;;1.00;0.00;;;;;;;;5054326;28;47837;-74
2022/01/09 02:58:12;;;;;;;;;0.00;0.00;;;;;;;;5074565;28;45362;-73
2022/01/09 03:00:39;;;;;;;;;0.00;0.00;;;;;;;;5073112;28;45688;-74
2022/01/09 03:03:04;;;;;;;;;1.50;0.00;;;;;;;;5070564;28;45458;-73
2022/01/09 03:05:29;;;;;;;;;1.00;0.00;;;;;;;;5048911;28;48722;-75
2022/01/09 03:07:55;;;;;;;;;0.00;0.00;;;;;;;;5056817;28;45307;-74
2022/01/09 03:10:21;;;;;;;;;2.50;1.00;;;;;;;;5057029;28;45487;-72
2022/01/09 03:12:47;;;;;;;;;1.00;0.00;;;;;;;;5075159;28;45314;-74
2022/01/09 03:15:12;;;;;;;;;1.00;1.00;;;;;;;;5073903;28;45496;-76
2022/01/09 03:17:38;;;;;;;;;0.00;0.00;;;;;;;;5056102;28;45442;-74
2022/01/09 03:20:04;;;;;;;;;0.75;0.00;;;;;;;;5056705;28;45386;-73
2022/01/09 03:22:30;;;;;;;;;1.25;1.00;;;;;;;;5056624;28;45318;-75
2022/01/09 03:24:55;;;;;;;;;1.00;0.00;;;;;;;;5075187;28;45638;-75
2022/01/09 03:27:20;;;;;;;;;1.00;1.00;;;;;;;;5056426;28;45996;-74
2022/01/09 03:29:46;;;;;;;;;0.00;0.00;;;;;;;;5056096;28;45595;-74
2022/01/09 03:32:11;;;;;;;;;0.25;0.25;;;;;;;;5072810;28;45400;-76
2022/01/09 03:34:36;;;;;;;;;1.50;0.75;;;;;;;;5056752;28;47290;-75
2022/01/09 03:37:02;;;;;;;;;2.50;1.00;;;;;;;;5056517;28;45951;-77
2022/01/09 03:39:27;;;;;;;;;4.00;1.00;;;;;;;;5056431;28;45467;-76
2022/01/09 03:41:55;;;;;;;;;0.75;0.75;;;;;;;;5075962;28;45559;-75
2022/01/09 03:44:20;;;;;;;;;1.00;0.00;;;;;;;;5059732;28;47372;-75
2022/01/09 03:46:46;;;;;;;;;0.75;0.50;;;;;;;;5059661;28;46128;-73
2022/01/09 03:49:11;;;;;;;;;1.00;1.00;;;;;;;;5077412;28;45498;-74
2022/01/09 03:51:38;;;;;;;;;0.25;0.25;;;;;;;;5059452;28;45400;-75
2022/01/09 03:54:04;;;;;;;;;0.00;0.00;;;;;;;;5059021;28;48696;-74
2022/01/09 03:56:29;;;;;;;;;2.00;1.00;;;;;;;;5059239;28;45362;-74
2022/01/09 03:58:54;;;;;;;;;2.00;0.25;;;;;;;;5059735;28;45550;-75
2022/01/09 04:01:22;;;;;;;;;1.75;1.25;;;;;;;;5059881;28;45568;-73
2022/01/09 04:03:48;;;;;;;;;1.75;0.75;;;;;;;;5059791;28;47998;-73
2022/01/09 04:06:13;;;;;;;;;1.25;0.25;;;;;;;;5059049;28;45503;-73
2022/01/09 04:08:38;;;;;;;;;0.25;0.00;;;;;;;;5059709;28;45297;-73
2022/01/09 04:11:04;;;;;;;;;0.00;0.00;;;;;;;;5059509;28;45555;-72
2022/01/09 04:13:30;;;;;;;;;1.25;0.00;;;;;;;;5058970;28;48503;-72
2022/01/09 04:15:56;;;;;;;;;1.50;0.50;;;;;;;;5077678;28;45361;-73
2022/01/09 04:18:22;;;;;;;;;2.00;0.00;;;;;;;;5070718;28;45750;-73
2022/01/09 04:20:48;;;;;;;;;1.00;1.00;;;;;;;;5075810;28;45330;-73
2022/01/09 04:23:14;;;;;;;;;0.25;0.00;;;;;;;;5059038;28;47344;-71
2022/01/09 04:25:40;;;;;;;;;0.00;0.00;;;;;;;;5065009;28;46152;-73
2022/01/09 04:28:06;;;;;;;;;3.25;0.75;;;;;;;;5078242;28;45391;-72
2022/01/09 04:30:31;;;;;;;;;2.00;1.00;;;;;;;;5059356;28;45376;-73
2022/01/09 04:32:56;;;;;;;;;1.75;0.00;;;;;;;;5077118;28;45552;-73
2022/01/09 04:35:21;;;;;;;;;2.75;0.00;;;;;;;;5077171;28;45297;-75
2022/01/09 04:37:48;;;;;;;;;1.00;1.00;;;;;;;;5076647;27;45523;-73
2022/01/09 04:40:15;;;;;;;;;0.25;0.00;;;;;;;;5058356;28;45575;-72
2022/01/09 04:42:46;;;;;;;;;1.75;0.00;;;;;;;;5059320;28;46832;-74
2022/01/09 04:45:13;;;;;;;;;1.75;0.00;;;;;;;;5076791;28;45807;-73
2022/01/09 04:47:42;;;;;;;;;1.75;1.00;;;;;;;;5076823;28;45481;-75
2022/01/09 04:50:12;;;;;;;;;0.25;0.25;;;;;;;;5076553;28;45484;-76
2022/01/09 04:52:39;;;;;;;;;0.00;0.00;;;;;;;;5062216;28;48607;-75
2022/01/09 04:55:04;;;;;;;;;0.25;0.00;;;;;;;;5082332;28;45434;-74
2022/01/09 04:57:29;;;;;;;;;2.00;0.75;;;;;;;;5080182;28;45486;-74
2022/01/09 04:59:55;;;;;;;;;1.75;0.00;;;;;;;;5058982;28;45462;-73
2022/01/09 05:02:20;;;;;;;;;1.00;0.25;;;;;;;;5076523;28;46397;-74
2022/01/09 05:04:45;;;;;;;;;0.00;0.00;;;;;;;;5076455;28;45387;-71
2022/01/09 05:07:10;;;;;;;;;1.50;0.00;;;;;;;;5058897;28;45473;-71
2022/01/09 05:09:36;;;;;;;;;0.25;0.25;;;;;;;;5058718;28;45362;-74
2022/01/09 05:12:01;;;;;;;;;0.75;0.75;;;;;;;;5091959;27;48140;-74
2022/01/09 05:14:26;;;;;;;;;2.00;1.00;;;;;;;;5057716;28;45617;-73
2022/01/09 05:16:51;;;;;;;;;2.00;1.00;;;;;;;;5076611;28;45427;-69
2022/01/09 05:19:19;;;;;;;;;0.00;0.00;;;;;;;;5076622;28;45351;-73
2022/01/09 05:21:45;;;;;;;;;4.50;1.00;;;;;;;;5076988;28;45340;-74
2022/01/09 05:24:10;;;;;;;;;1.00;0.00;;;;;;;;5076084;28;45439;-72
2022/01/09 05:26:36;;;;;;;;;1.75;0.00;;;;;;;;5076144;28;45460;-73
2022/01/09 05:29:01;;;;;;;;;0.00;0.00;;;;;;;;5076311;28;45496;-71
2022/01/09 05:31:26;;;;;;;;;0.25;0.00;;;;;;;;5076324;28;46177;-75
2022/01/09 05:33:52;;;;;;;;;1.00;1.00;;;;;;;;5058802;28;45420;-74
2022/01/09 05:36:17;;;;;;;;;1.25;0.00;;;;;;;;5057842;28;45651;-73
2022/01/09 05:38:42;;;;;;;;;1.00;1.00;;;;;;;;5057859;28;45563;-73
2022/01/09 05:41:07;;;;;;;;;4.00;1.00;;;;;;;;5057367;28;47685;-72
2022/01/09 05:43:33;;;;;;;;;3.25;0.00;;;;;;;;5076216;28;45367;-72
2022/01/09 05:45:58;;;;;;;;;0.00;0.00;;;;;;;;5076742;28;45291;-70
2022/01/09 05:48:23;;;;;;;;;2.25;0.25;;;;;;;;5076878;28;45362;-74
2022/01/09 05:50:48;;;;;;;;;0.75;0.75;;;;;;;;5058077;28;48404;-72
2022/01/09 05:53:14;;;;;;;;;1.75;0.25;;;;;;;;5076084;28;45381;-72
2022/01/09 05:55:39;;;;;;;;;2.00;1.00;;;;;;;;5076026;28;45345;-71
2022/01/09 05:58:04;;;;;;;;;2.00;1.00;;;;;;;;5076527;28;45503;-72
2022/01/09 06:00:29;;;;;;;;;1.50;0.50;;;;;;;;5058098;28;48476;-71
2022/01/09 06:02:54;;;;;;;;;3.00;0.50;;;;;;;;5057468;28;45394;-74
2022/01/09 06:05:20;;;;;;;;;1.00;1.00;;;;;;;;5074841;28;45413;-73
2022/01/09 06:07:45;;;;;;;;;1.00;1.00;;;;;;;;5057657;28;45417;-72
2022/01/09 06:10:11;;;;;;;;;2.25;1.00;;;;;;;;5075993;28;46418;-71
2022/01/09 06:12:36;;;;;;;;;1.00;1.00;;;;;;;;5076226;28;45461;-72
2022/01/09 06:15:02;;;;;;;;;4.00;3.00;;;;;;;;5075829;28;45223;-73
2022/01/09 06:17:27;;;;;;;;;4.50;2.00;;;;;;;;5075481;28;45304;-73
2022/01/09 06:19:53;;;;;;;;;1.75;1.75;;;;;;;;5057448;28;47241;-72
2022/01/09 06:22:18;;;;;;;;;1.00;1.00;;;;;;;;5057156;28;46205;-73
2022/01/09 06:24:50;;;;;;;;;1.00;1.00;;;;;;;;5058251;28;45520;-72
2022/01/09 06:27:16;;;;;;;;;0.50;0.00;;;;;;;;5057180;28;45574;-73
2022/01/09 06:29:41;;;;;;;;;1.00;0.00;;;;;;;;5057058;28;47390;-72
2022/01/09 06:32:06;;;;;;;;;1.25;0.00;;;;;;;;5056780;28;46003;-74
2022/01/09 06:34:31;;;;;;;;;2.25;0.00;;;;;;;;5075489;28;45482;-73
2022/01/09 06:36:57;;;;;;;;;1.75;1.00;;;;;;;;5075821;28;45371;-74
2022/01/09 06:39:22;;;;;;;;;1.00;0.00;;;;;;;;5056375;28;47798;-73
2022/01/09 06:41:47;;;;;;;;;2.25;1.00;;;;;;;;5075208;28;45342;-74
2022/01/09 06:44:13;;;;;;;;;3.75;1.00;;;;;;;;5057142;28;45330;-74
2022/01/09 06:46:38;;;;;;;;;2.25;1.75;;;;;;;;5057107;28;45562;-74
2022/01/09 06:49:03;;;;;;;;;1.00;0.00;;;;;;;;5075098;28;45543;-74
2022/01/09 06:51:28;;;;;;;;;2.75;1.00;;;;;;;;5055745;28;45473;-78
2022/01/09 06:53:54;;;;;;;;;0.00;0.00;;;;;;;;5057089;28;45342;-71
2022/01/09 06:56:19;;;;;;;;;0.00;0.00;;;;;;;;5075104;28;45401;-74
2022/01/09 06:58:44;;;;;;;;;1.00;0.00;;;;;;;;5074947;28;47901;-71
2022/01/09 07:01:09;;;;;;;;;1.00;0.50;;;;;;;;5075175;28;45197;-73
2022/01/09 07:03:34;;;;;;;;;0.00;0.00;;;;;;;;5075486;28;45494;-75
2022/01/09 07:06:00;;;;;;;;;0.00;0.00;;;;;;;;5074844;28;45537;-75
2022/01/09 07:08:27;;;;;;;;;1.00;1.00;;;;;;;;5056046;28;48491;-74
2022/01/09 07:10:52;;;;;;;;;1.75;0.00;;;;;;;;5056342;28;45544;-77
2022/01/09 07:13:17;;;;;;;;;1.00;0.00;;;;;;;;5056649;28;45390;-76
2022/01/09 07:15:42;;;;;;;;;0.50;0.50;;;;;;;;5057602;28;45506;-77
2022/01/09 07:18:08;;;;;;;;;0.00;0.00;;;;;;;;5059979;28;47880;-77
2022/01/09 07:20:34;;;;;;;;;2.00;0.00;;;;;;;;5078125;28;45373;-71
2022/01/09 07:22:59;;;;;;;;;0.00;0.00;;;;;;;;5078479;28;45530;-72
2022/01/09 07:25:25;;;;;;;;;0.00;0.00;;;;;;;;5043865;28;45599;-73
2022/01/09 07:27:50;;;;;;;;;1.00;0.00;;;;;;;;5060474;28;48466;-71
2022/01/09 07:30:15;;;;;;;;;0.00;0.00;;;;;;;;5078014;28;45444;-71
2022/01/09 07:32:40;;;;;;;;;0.00;0.00;;;;;;;;5059965;28;45435;-72
2022/01/09 07:35:06;;;;;;;;;1.00;0.00;;;;;;;;5059220;28;45504;-73
2022/01/09 07:37:31;;;;;;;;;1.25;1.00;;;;;;;;5077390;28;45984;-72
2022/01/09 07:39:57;;;;;;;;;2.00;0.00;;;;;;;;5077288;28;45790;-73
2022/01/09 07:42:22;;;;;;;;;1.25;1.00;;;;;;;;5059914;28;45431;-75
2022/01/09 07:44:48;;;;;;;;;0.00;0.00;;;;;;;;5059683;28;45448;-75
2022/01/09 07:47:13;;;;;;;;;0.50;0.50;;;;;;;;5077738;28;45605;-75
2022/01/09 07:49:38;;;;;;;;;0.00;0.00;;;;;;;;5078175;28;45452;-74
2022/01/09 07:52:03;;;;;;;;;1.00;0.00;;;;;;;;5078053;28;45381;-74
2022/01/09 07:54:29;;;;;;;;;0.00;0.00;;;;;;;;5076031;28;45358;-74
2022/01/09 07:56:54;;;;;;;;;0.00;0.00;;;;;;;;5059127;28;46551;-73
2022/01/09 07:59:19;;;;;;;;;2.75;0.00;;;;;;;;5059432;28;45539;-73
2022/01/09 08:01:44;;;;;;;;;0.00;0.00;;;;;;;;5077708;28;45419;-74
2022/01/09 08:04:10;;;;;;;;;0.00;0.00;;;;;;;;5059246;28;45562;-73
2022/01/09 08:06:35;;;;;;;;;0.50;0.00;;;;;;;;5059953;28;48483;-76
2022/01/09 08:09:00;;;;;;;;;2.00;0.00;;;;;;;;5077363;28;45432;-75
2022/01/09 08:11:28;;;;;;;;;0.00;0.00;;;;;;;;5077402;28;45424;-76
2022/01/09 08:13:54;;;;;;;;;0.00;0.00;;;;;;;;5059161;28;45579;-77
2022/01/09 08:16:19;;;;;;;;;0.00;0.00;;;;;;;;5058637;28;47503;-77
2022/01/09 08:18:44;;;;;;;;;0.00;0.00;;;;;;;;5077669;28;45437;-76
2022/01/09 08:21:09;;;;;;;;;0.00;0.00;;;;;;;;5059560;28;45554;-76
2022/01/09 08:23:36;;;;;;;;;0.50;0.00;;;;;;;;5078531;28;45477;-77
2022/01/09 08:26:01;;;;;;;;;0.00;0.00;;;;;;;;5079119;28;45549;-76
2022/01/09 08:28:27;;;;;;;;;0.50;0.00;;;;;;;;5080932;27;45365;-77
2022/01/09 08:30:52;;;;;;;;;0.00;0.00;;;;;;;;5081147;28;45840;-75
2022/01/09 08:33:17;;;;;;;;;0.75;0.25;;;;;;;;5081862;28;45325;-74
2022/01/09 08:35:42;;;;;;;;;0.00;0.00;;;;;;;;5063365;28;46533;-77
2022/01/09 08:38:08;;;;;;;;;1.00;1.00;;;;;;;;5063014;28;45297;-77
2022/01/09 08:40:33;;;;;;;;;0.00;0.00;;;;;;;;5059141;28;45358;-77
2022/01/09 08:42:58;;;;;;;;;0.00;0.00;;;;;;;;5077796;28;45290;-76
2022/01/09 08:45:23;;;;;;;;;1.00;0.00;;;;;;;;5077540;28;46054;-77
2022/01/09 08:47:49;;;;;;;;;1.75;0.75;;;;;;;;5059164;28;45685;-77
2022/01/09 08:50:15;;;;;;;;;3.00;0.00;;;;;;;;5059189;28;45464;-74
2022/01/09 08:52:40;;;;;;;;;1.00;0.00;;;;;;;;5077566;28;45359;-76
2022/01/09 08:55:05;;;;;;;;;0.00;0.00;;;;;;;;5077228;28;46757;-78
2022/01/09 08:57:31;;;;;;;;;3.50;1.00;;;;;;;;5059368;28;46095;-79
2022/01/09 08:59:56;;;;;;;;;1.50;0.00;;;;;;;;5058927;28;45211;-75
2022/01/09 09:02:21;;;;;;;;;1.00;1.00;;;;;;;;5057872;28;45486;-76
2022/01/09 09:04:47;;;;;;;;;4.50;3.00;;;;;;;;5076378;28;45470;-76
2022/01/09 09:07:14;;;;;;;;;1.75;1.00;;;;;;;;5059279;28;45493;-73
2022/01/09 09:09:39;;;;;;;;;1.50;1.00;;;;;;;;5059511;28;45481;-75
2022/01/09 09:12:05;;;;;;;;;6.00;1.75;;;;;;;;5058236;28;45499;-75
2022/01/09 09:14:30;;;;;;;;;3.00;2.00;;;;;;;;5057985;28;48470;-73
2022/01/09 09:16:55;;;;;;;;;2.00;2.00;;;;;;;;5057763;28;46275;-75
2022/01/09 09:19:21;;;;;;;;;2.00;2.00;;;;;;;;5076746;28;45662;-74
2022/01/09 09:21:46;;;;;;;;;0.75;0.50;;;;;;;;5059101;28;45431;-74
2022/01/09 09:24:12;;;;;;;;;2.00;2.00;;;;;;;;5059589;28;48353;-73
2022/01/09 09:26:38;;;;;;;;;2.00;1.00;;;;;;;;5057873;28;45429;-72
2022/01/09 09:29:05;;;;;;;;;2.25;2.25;;;;;;;;5058185;28;45459;-73
2022/01/09 09:31:30;;;;;;;;;13.50;11.75;;;;;;;;5076057;28;45164;-74
2022/01/09 09:33:55;;;;;;;;;13.00;11.50;;;;;;;;5076678;28;45287;-74
2022/01/09 09:36:23;;;;;;;;;12.25;7.75;;;;;;;;5075922;28;45149;-75
2022/01/09 09:38:48;;;;;;;;;3.25;3.25;;;;;;;;5078159;28;45464;-74
2022/01/09 09:41:13;;;;;;;;;7.50;6.25;;;;;;;;5060736;28;45510;-76
2022/01/09 09:43:38;;;;;;;;;9.25;8.00;;;;;;;;5062577;28;47496;-75
2022/01/09 09:46:04;;;;;;;;;4.25;4.25;;;;;;;;5061532;28;45297;-76
2022/01/09 09:48:29;;;;;;;;;5.75;3.75;;;;;;;;5074808;28;45465;-76
2022/01/09 09:50:54;;;;;;;;;8.25;7.00;;;;;;;;5062367;28;45518;-75
2022/01/09 09:53:20;;;;;;;;;3.00;3.00;;;;;;;;5067635;28;47321;-75
2022/01/09 09:55:48;;;;;;;;;6.50;3.00;;;;;;;;5095163;27;45359;-76
2022/01/09 09:58:13;;;;;;;;;2.00;2.00;;;;;;;;5074106;28;45295;-76
2022/01/09 10:00:39;;;;;;;;;3.00;1.00;;;;;;;;5060257;28;45417;-76
2022/01/09 10:03:05;;;;;;;;;1.00;1.00;;;;;;;;5082631;28;45539;-74
2022/01/09 10:05:34;;;;;;;;;2.00;2.00;;;;;;;;5081462;27;45302;-77
2022/01/09 10:08:07;;;;;;;;;1.25;1.25;;;;;;;;5064435;28;45913;-73
2022/01/09 10:10:33;;;;;;;;;1.00;1.00;;;;;;;;5079557;28;45495;-76
2022/01/09 10:13:06;;;;;;;;;8.00;7.00;;;;;;;;5076856;28;46141;-73
2022/01/09 10:15:42;;;;;;;;;8.00;7.00;;;;;;;;5070880;28;45476;-73
2022/01/09 10:18:08;;;;;;;;;8.50;8.00;;;;;;;;5071906;28;46082;-76
2022/01/09 10:20:33;;;;;;;;;28.00;28.00;;;;;;;;5053027;28;45600;-77
2022/01/09 10:22:58;;;;;;;;;24.50;21.75;;;;;;;;5058803;28;48270;-76
2022/01/09 10:25:37;;;;;;;;;12.50;11.75;;;;;;;;5057948;28;45347;-77
2022/01/09 10:28:20;;;;;;;;;10.00;10.00;;;;;;;;5074586;28;45394;-76
2022/01/09 10:30:47;;;;;;;;;12.00;12.00;;;;;;;;5060399;28;45475;-77
2022/01/09 10:33:17;;;;;;;;;6.25;6.25;;;;;;;;5059841;28;48472;-76
2022/01/09 10:35:46;;;;;;;;;3.00;3.00;;;;;;;;5058976;28;45925;-77
2022/01/09 10:38:16;;;;;;;;;6.25;4.00;;;;;;;;5059101;28;45325;-77
2022/01/09 10:40:43;;;;;;;;;3.50;3.50;;;;;;;;5076036;28;45345;-77
2022/01/09 10:43:08;;;;;;;;;4.00;3.50;;;;;;;;5056124;28;48481;-76
2022/01/09 10:45:36;;;;;;;;;4.00;4.00;;;;;;;;5052597;28;45442;-68
2022/01/09 10:48:07;;;;;;;;;2.00;2.00;;;;;;;;5051940;28;45421;-70
2022/01/09 10:50:35;;;;;;;;;2.00;2.00;;;;;;;;5072561;28;45843;-69
2022/01/09 10:53:27;;;;;;;;;2.00;2.00;;;;;;;;5060746;28;47391;-68
2022/01/09 10:56:01;;;;;;;;;4.00;4.00;;;;;;;;5054537;28;45329;-74
2022/01/09 10:58:27;;;;;;;;;7.50;4.50;;;;;;;;5078189;28;45569;-77
2022/01/09 11:01:10;;;;;;;;;6.75;5.00;;;;;;;;5062823;28;45736;-75
2022/01/09 11:03:35;;;;;;;;;3.00;3.00;;;;;;;;5075766;28;45737;-71
2022/01/09 11:06:01;;;;;;;;;3.75;3.00;;;;;;;;5058010;28;45391;-69
2022/01/09 11:08:28;;;;;;;;;3.25;3.00;;;;;;;;5080107;28;45487;-75
2022/01/09 11:10:54;;;;;;;;;6.50;6.50;;;;;;;;5060739;28;45528;-70
2022/01/09 11:13:19;;;;;;;;;8.00;8.00;;;;;;;;5060643;28;47803;-70
2022/01/09 11:16:32;;;;;;;;;7.75;7.75;;;;;;;;5061740;28;46173;-72
2022/01/09 11:18:30;;;;;;;;;8.50;6.25;;;;;;;;5079729;28;45390;-72
2022/01/09 11:20:56;;;;;;;;;6.50;6.50;;;;;;;;5079491;28;45427;-72
2022/01/09 11:23:23;;;;;;;;;7.75;7.75;;;;;;;;5059052;28;48002;-77
2022/01/09 11:25:52;;;;;;;;;13.00;8.50;;;;;;;;5078503;28;45367;-80
2022/01/09 11:28:25;;;;;;;;;7.75;3.50;;;;;;;;5072533;28;45553;-80
2022/01/09 11:30:59;;;;;;;;;3.00;3.00;;;;;;;;5059728;28;45639;-80
2022/01/09 11:33:43;;;;;;;;;6.25;6.25;;;;;;;;5059619;28;47565;-79
2022/01/09 11:36:12;;;;;;;;;6.75;6.75;;;;;;;;5077196;28;45458;-77
2022/01/09 11:38:45;;;;;;;;;5.50;3.25;;;;;;;;5078049;28;45488;-75
2022/01/09 11:41:22;;;;;;;;;9.00;7.75;;;;;;;;5061072;28;45473;-75
2022/01/09 11:43:50;;;;;;;;;11.50;10.00;;;;;;;;5060651;28;47581;-73
2022/01/09 11:46:15;;;;;;;;;9.00;9.00;;;;;;;;5060757;28;45573;-74
2022/01/09 11:48:42;;;;;;;;;14.50;12.50;;;;;;;;5079871;28;45827;-75
2022/01/09 11:51:08;;;;;;;;;8.75;8.25;;;;;;;;5079126;28;45414;-75
2022/01/09 11:53:52;;;;;;;;;8.00;8.00;;;;;;;;5073621;27;47212;-72
2022/01/09 11:56:37;;;;;;;;;14.25;14.25;;;;;;;;5059859;27;46333;-74
2022/01/09 11:59:22;;;;;;;;;23.50;23.50;;;;;;;;5076935;27;45421;-71
2022/01/09 12:01:48;;;;;;;;;14.75;14.75;;;;;;;;5083591;27;45508;-72
2022/01/09 12:04:46;;;;;;;;;8.75;8.75;;;;;;;;5072736;27;46428;-71
2022/01/09 12:07:12;;;;;;;;;19.50;17.25;;;;;;;;5002157;28;45608;-72
2022/01/09 12:09:37;;;;;;;;;9.50;9.50;;;;;;;;4994424;28;45584;-73
2022/01/09 12:12:03;;;;;;;;;7.75;7.75;;;;;;;;5006900;28;45460;-73
2022/01/09 12:14:56;;;;;;;;;23.00;23.00;;;;;;;;4993936;28;48018;-72
2022/01/09 12:17:21;;;;;;;;;17.00;14.50;;;;;;;;4988529;28;45448;-72
2022/01/09 12:20:08;;;;;;;;;8.00;7.00;;;;;;;;5001996;28;45495;-73
2022/01/09 12:22:49;;;;;;;;;4.50;4.50;;;;;;;;4994669;28;45529;-72
2022/01/09 12:25:30;;;;;;;;;17.00;13.75;;;;;;;;4991463;28;48709;-72
2022/01/09 12:27:56;;;;;;;;;8.00;6.75;;;;;;;;5006134;28;45513;-73
2022/01/09 12:30:34;;;;;;;;;7.25;6.00;;;;;;;;4994073;28;45513;-75
2022/01/09 12:33:05;;;;;;;;;13.25;12.00;;;;;;;;4989352;28;45581;-72
2022/01/09 12:35:30;;;;;;;;;2.75;2.75;;;;;;;;5002027;28;48120;-72
2022/01/09 12:37:57;;;;;;;;;1.25;1.25;;;;;;;;5002026;28;45535;-72
2022/01/09 12:40:23;;;;;;;;;10.75;9.50;;;;;;;;4994580;28;45415;-75
2022/01/09 12:42:50;;;;;;;;;2.50;2.50;;;;;;;;5030997;27;45614;-73
2022/01/09 12:45:20;;;;;;;;;5.75;4.00;;;;;;;;5057934;28;46739;-75
2022/01/09 12:47:45;;;;;;;;;4.00;4.00;;;;;;;;5057144;28;46143;-74
2022/01/09 12:50:11;;;;;;;;;6.50;6.00;;;;;;;;5067152;27;45452;-75
2022/01/09 12:52:36;;;;;;;;;5.00;5.00;;;;;;;;5055109;28;45881;-76
2022/01/09 12:55:05;;;;;;;;;7.00;7.00;;;;;;;;5064823;27;48485;-73
2022/01/09 12:57:30;;;;;;;;;2.00;2.00;;;;;;;;5073332;27;45391;-75
2022/01/09 12:59:56;;;;;;;;;2.50;2.50;;;;;;;;5057453;28;45502;-74
2022/01/09 13:02:22;;;;;;;;;4.00;4.00;;;;;;;;5089215;27;45366;-75
2022/01/09 13:04:47;;;;;;;;;11.00;9.25;;;;;;;;5054819;28;47347;-77
2022/01/09 13:07:16;;;;;;;;;6.00;3.00;;;;;;;;5057537;28;45470;-75
2022/01/09 13:09:42;;;;;;;;;9.00;6.00;;;;;;;;5072858;27;45487;-79
2022/01/09 13:12:08;;;;;;;;;4.00;3.00;;;;;;;;5056421;27;45577;-80
2022/01/09 13:14:34;;;;;;;;;14.25;12.75;;;;;;;;5062726;27;47310;-78
2022/01/09 13:17:00;;;;;;;;;14.75;14.75;;;;;;;;5089079;27;45532;-77
2022/01/09 13:19:25;;;;;;;;;12.75;11.75;;;;;;;;5070593;27;46372;-78
2022/01/09 13:21:51;;;;;;;;;19.00;14.00;;;;;;;;5068479;27;45361;-77
2022/01/09 13:24:24;;;;;;;;;13.25;12.25;;;;;;;;5057304;28;47304;-77
2022/01/09 13:26:53;;;;;;;;;10.00;9.00;;;;;;;;5075741;27;45714;-77
2022/01/09 13:29:24;;;;;;;;;11.75;11.75;;;;;;;;5069245;27;45488;-76
2022/01/09 13:31:53;;;;;;;;;10.75;10.75;;;;;;;;5075746;27;45597;-78
2022/01/09 13:34:38;;;;;;;;;14.75;12.25;;;;;;;;5085310;27;48126;-73
2022/01/09 13:37:08;;;;;;;;;14.00;13.00;;;;;;;;5048144;28;45972;-74
2022/01/09 13:39:35;;;;;;;;;11.00;9.75;;;;;;;;5068027;27;45404;-73
2022/01/09 13:42:03;;;;;;;;;6.25;6.25;;;;;;;;5053663;28;45434;-76
2022/01/09 13:44:39;;;;;;;;;14.00;11.00;;;;;;;;5069121;27;45748;-75
2022/01/09 13:47:04;;;;;;;;;14.50;12.50;;;;;;;;5051668;28;45511;-75
2022/01/09 13:49:30;;;;;;;;;16.50;11.25;;;;;;;;5055625;28;45305;-75
2022/01/09 13:51:55;;;;;;;;;12.75;11.00;;;;;;;;5050642;28;45456;-71
2022/01/09 13:54:22;;;;;;;;;11.00;11.00;;;;;;;;5053840;28;47952;-71
2022/01/09 13:57:05;;;;;;;;;8.00;8.00;;;;;;;;5053359;28;45560;-75
2022/01/09 13:59:34;;;;;;;;;13.00;12.00;;;;;;;;5048244;28;46217;-66
2022/01/09 14:01:59;;;;;;;;;6.75;4.00;;;;;;;;5067151;28;45424;-68
2022/01/09 14:04:24;;;;;;;;;25.50;20.00;;;;;;;;5052461;28;46847;-68
2022/01/09 14:06:56;;;;;;;;;18.00;14.75;;;;;;;;5089426;27;46248;-70
2022/01/09 14:09:33;;;;;;;;;25.75;21.00;;;;;;;;5054720;28;45524;-70
2022/01/09 14:11:59;;;;;;;;;12.00;9.50;;;;;;;;5066228;28;45691;-70
2022/01/09 14:14:35;;;;;;;;;9.50;9.50;;;;;;;;5054898;28;48408;-70
2022/01/09 14:17:00;;;;;;;;;21.50;20.75;;;;;;;;5050786;28;46113;-69
2022/01/09 14:19:58;;;;;;;;;15.00;13.75;;;;;;;;5067854;27;45424;-69
2022/01/09 14:22:42;;;;;;;;;13.75;13.75;;;;;;;;5005242;28;45532;-69
2022/01/09 14:25:12;;;;;;;;;13.00;13.00;;;;;;;;4982879;28;47640;-75
2022/01/09 14:27:39;;;;;;;;;8.75;8.75;;;;;;;;4988877;28;45323;-73
2022/01/09 14:30:23;;;;;;;;;7.25;7.00;;;;;;;;4992793;28;45437;-74
2022/01/09 14:32:51;;;;;;;;;11.00;9.00;;;;;;;;5008312;28;45497;-73
2022/01/09 14:35:25;;;;;;;;;7.25;5.25;;;;;;;;4987657;28;47712;-72
2022/01/09 14:37:51;;;;;;;;;15.50;14.25;;;;;;;;4997654;28;45449;-70
2022/01/09 14:40:18;;;;;;;;;12.75;11.50;;;;;;;;4994090;28;45291;-70